sensor_id;sensor_type;location;lat;lon;timestamp;temperature;humidity
75927;DHT22;64605;48.296;16.416;2023-01-01T00:00:39;6.10;79.20
75927;DHT22;64605;48.296;16.416;2023-01-01T00:03:04;6.00;79.20
75927;DHT22;64605;48.296;16.416;2023-01-01T00:05:30;6.00;79.20
75927;DHT22;64605;48.296;16.416;2023-01-01T00:07:56;5.90;79.10
75927;DHT22;64605;48.296;16.416;2023-01-01T00:10:21;5.90;79.20
75927;DHT22;64605;48.296;16.416;2023-01-01T00:12:53;5.90;79.20
75927;DHT22;64605;48.296;16.416;2023-01-01T00:15:19;5.80;79.30
75927;DHT22;64605;48.296;16.416;2023-01-01T00:17:45;5.80;79.20
75927;DHT22;64605;48.296;16.416;2023-01-01T00:20:11;5.80;79.30
75927;DHT22;64605;48.296;16.416;2023-01-01T00:22:37;5.80;79.10
75927;DHT22;64605;48.296;16.416;2023-01-01T00:25:04;5.80;79.30
75927;DHT22;64605;48.296;16.416;2023-01-01T00:27:30;5.70;79.90
75927;DHT22;64605;48.296;16.416;2023-01-01T00:29:55;5.80;80.80
75927;DHT22;64605;48.296;16.416;2023-01-01T00:32:21;5.70;83.20
75927;DHT22;64605;48.296;16.416;2023-01-01T00:34:46;5.80;82.90
75927;DHT22;64605;48.296;16.416;2023-01-01T00:37:12;5.90;82.90
75927;DHT22;64605;48.296;16.416;2023-01-01T00:39:39;5.90;81.70
75927;DHT22;64605;48.296;16.416;2023-01-01T00:42:05;5.90;81.10
75927;DHT22;64605;48.296;16.416;2023-01-01T00:44:31;5.90;80.50
75927;DHT22;64605;48.296;16.416;2023-01-01T00:46:57;5.90;80.60
75927;DHT22;64605;48.296;16.416;2023-01-01T00:49:22;5.90;80.70
75927;DHT22;64605;48.296;16.416;2023-01-01T00:51:49;6.00;81.50
75927;DHT22;64605;48.296;16.416;2023-01-01T00:54:14;6.00;81.50
75927;DHT22;64605;48.296;16.416;2023-01-01T00:56:40;5.90;81.20
75927;DHT22;64605;48.296;16.416;2023-01-01T00:59:06;5.90;80.70
75927;DHT22;64605;48.296;16.416;2023-01-01T01:01:31;5.90;80.70
75927;DHT22;64605;48.296;16.416;2023-01-01T01:03:59;5.80;80.50
75927;DHT22;64605;48.296;16.416;2023-01-01T01:06:24;5.80;81.40
75927;DHT22;64605;48.296;16.416;2023-01-01T01:08:50;5.80;80.40
75927;DHT22;64605;48.296;16.416;2023-01-01T01:11:21;5.70;80.20
75927;DHT22;64605;48.296;16.416;2023-01-01T01:13:49;5.70;80.00
75927;DHT22;64605;48.296;16.416;2023-01-01T01:16:19;5.70;80.00
75927;DHT22;64605;48.296;16.416;2023-01-01T01:18:45;5.70;80.00
75927;DHT22;64605;48.296;16.416;2023-01-01T01:21:14;5.70;80.00
75927;DHT22;64605;48.296;16.416;2023-01-01T01:23:40;5.60;80.00
75927;DHT22;64605;48.296;16.416;2023-01-01T01:28:36;5.60;80.10
75927;DHT22;64605;48.296;16.416;2023-01-01T01:31:02;5.60;80.10
75927;DHT22;64605;48.296;16.416;2023-01-01T01:33:28;5.50;79.80
75927;DHT22;64605;48.296;16.416;2023-01-01T01:35:53;5.50;79.60
75927;DHT22;64605;48.296;16.416;2023-01-01T01:38:19;5.50;79.60
75927;DHT22;64605;48.296;16.416;2023-01-01T01:40:44;5.50;79.80
75927;DHT22;64605;48.296;16.416;2023-01-01T01:43:21;5.40;79.80
75927;DHT22;64605;48.296;16.416;2023-01-01T01:45:48;5.40;79.80
75927;DHT22;64605;48.296;16.416;2023-01-01T01:48:14;5.40;79.90
75927;DHT22;64605;48.296;16.416;2023-01-01T01:50:42;5.30;80.10
75927;DHT22;64605;48.296;16.416;2023-01-01T01:53:20;5.30;80.20
75927;DHT22;64605;48.296;16.416;2023-01-01T01:56:01;5.30;80.10
75927;DHT22;64605;48.296;16.416;2023-01-01T01:58:29;5.30;79.90
75927;DHT22;64605;48.296;16.416;2023-01-01T02:00:55;5.20;80.00
75927;DHT22;64605;48.296;16.416;2023-01-01T02:05:56;5.20;80.00
75927;DHT22;64605;48.296;16.416;2023-01-01T02:08:23;5.20;80.00
75927;DHT22;64605;48.296;16.416;2023-01-01T02:10:49;5.10;80.00
75927;DHT22;64605;48.296;16.416;2023-01-01T02:13:16;5.10;80.10
75927;DHT22;64605;48.296;16.416;2023-01-01T02:18:15;5.10;79.80
75927;DHT22;64605;48.296;16.416;2023-01-01T02:20:59;5.10;80.90
75927;DHT22;64605;48.296;16.416;2023-01-01T02:29:35;5.00;79.70
75927;DHT22;64605;48.296;16.416;2023-01-01T02:32:13;5.00;79.70
75927;DHT22;64605;48.296;16.416;2023-01-01T02:35:05;4.90;80.80
75927;DHT22;64605;48.296;16.416;2023-01-01T02:37:58;4.90;79.90
75927;DHT22;64605;48.296;16.416;2023-01-01T02:40:25;4.90;80.10
75927;DHT22;64605;48.296;16.416;2023-01-01T02:42:52;4.90;80.00
75927;DHT22;64605;48.296;16.416;2023-01-01T02:45:20;4.80;80.00
75927;DHT22;64605;48.296;16.416;2023-01-01T02:47:46;4.90;80.00
75927;DHT22;64605;48.296;16.416;2023-01-01T02:50:15;4.80;79.80
75927;DHT22;64605;48.296;16.416;2023-01-01T02:52:55;4.80;80.00
75927;DHT22;64605;48.296;16.416;2023-01-01T03:04:10;4.70;80.00
75927;DHT22;64605;48.296;16.416;2023-01-01T03:07:18;4.70;79.90
75927;DHT22;64605;48.296;16.416;2023-01-01T03:12:37;4.70;80.00
75927;DHT22;64605;48.296;16.416;2023-01-01T03:15:13;4.70;80.10
75927;DHT22;64605;48.296;16.416;2023-01-01T03:18:17;4.70;80.10
75927;DHT22;64605;48.296;16.416;2023-01-01T03:20:44;4.70;80.10
75927;DHT22;64605;48.296;16.416;2023-01-01T03:23:15;4.70;80.10
75927;DHT22;64605;48.296;16.416;2023-01-01T03:25:46;4.70;80.20
75927;DHT22;64605;48.296;16.416;2023-01-01T03:28:16;4.60;80.10
75927;DHT22;64605;48.296;16.416;2023-01-01T03:30:45;4.70;80.10
75927;DHT22;64605;48.296;16.416;2023-01-01T03:33:20;4.70;80.00
75927;DHT22;64605;48.296;16.416;2023-01-01T03:35:58;4.70;80.10
75927;DHT22;64605;48.296;16.416;2023-01-01T03:38:46;4.70;80.00
75927;DHT22;64605;48.296;16.416;2023-01-01T03:41:39;4.60;79.90
75927;DHT22;64605;48.296;16.416;2023-01-01T03:44:13;4.60;80.00
75927;DHT22;64605;48.296;16.416;2023-01-01T03:46:41;4.70;80.00
75927;DHT22;64605;48.296;16.416;2023-01-01T03:49:09;4.70;80.10
75927;DHT22;64605;48.296;16.416;2023-01-01T03:52:03;4.70;80.10
75927;DHT22;64605;48.296;16.416;2023-01-01T03:57:25;4.70;80.20
75927;DHT22;64605;48.296;16.416;2023-01-01T04:00:13;4.60;80.10
75927;DHT22;64605;48.296;16.416;2023-01-01T04:03:00;4.70;79.90
75927;DHT22;64605;48.296;16.416;2023-01-01T04:05:30;4.70;80.10
75927;DHT22;64605;48.296;16.416;2023-01-01T04:08:00;4.70;80.00
75927;DHT22;64605;48.296;16.416;2023-01-01T04:10:27;4.70;79.90
75927;DHT22;64605;48.296;16.416;2023-01-01T04:12:56;4.70;80.00
75927;DHT22;64605;48.296;16.416;2023-01-01T04:15:24;4.70;80.20
75927;DHT22;64605;48.296;16.416;2023-01-01T04:17:50;4.60;80.50
75927;DHT22;64605;48.296;16.416;2023-01-01T04:20:17;4.70;80.60
75927;DHT22;64605;48.296;16.416;2023-01-01T04:22:43;4.70;80.60
75927;DHT22;64605;48.296;16.416;2023-01-01T04:25:10;4.70;80.90
75927;DHT22;64605;48.296;16.416;2023-01-01T04:27:36;4.80;80.60
75927;DHT22;64605;48.296;16.416;2023-01-01T04:30:03;4.70;80.40
75927;DHT22;64605;48.296;16.416;2023-01-01T04:32:29;4.70;80.40
75927;DHT22;64605;48.296;16.416;2023-01-01T04:34:55;4.70;80.40
75927;DHT22;64605;48.296;16.416;2023-01-01T04:37:21;4.70;80.60
75927;DHT22;64605;48.296;16.416;2023-01-01T04:39:46;4.70;80.70
75927;DHT22;64605;48.296;16.416;2023-01-01T04:42:12;4.70;80.60
75927;DHT22;64605;48.296;16.416;2023-01-01T04:44:37;4.70;80.70
75927;DHT22;64605;48.296;16.416;2023-01-01T04:47:04;4.60;80.50
75927;DHT22;64605;48.296;16.416;2023-01-01T04:49:29;4.70;80.40
75927;DHT22;64605;48.296;16.416;2023-01-01T04:51:55;4.70;80.30
75927;DHT22;64605;48.296;16.416;2023-01-01T04:54:21;4.70;80.30
75927;DHT22;64605;48.296;16.416;2023-01-01T04:56:46;4.60;80.30
75927;DHT22;64605;48.296;16.416;2023-01-01T04:59:12;4.70;80.30
75927;DHT22;64605;48.296;16.416;2023-01-01T05:01:37;4.60;80.10
75927;DHT22;64605;48.296;16.416;2023-01-01T05:04:03;4.70;80.00
75927;DHT22;64605;48.296;16.416;2023-01-01T05:06:29;4.70;80.10
75927;DHT22;64605;48.296;16.416;2023-01-01T05:08:56;4.60;80.10
75927;DHT22;64605;48.296;16.416;2023-01-01T05:11:27;4.60;80.20
75927;DHT22;64605;48.296;16.416;2023-01-01T05:13:55;4.60;80.20
75927;DHT22;64605;48.296;16.416;2023-01-01T05:16:25;4.60;80.20
75927;DHT22;64605;48.296;16.416;2023-01-01T05:18:51;4.70;80.30
75927;DHT22;64605;48.296;16.416;2023-01-01T05:21:21;4.70;80.20
75927;DHT22;64605;48.296;16.416;2023-01-01T05:23:47;4.70;79.90
75927;DHT22;64605;48.296;16.416;2023-01-01T05:26:18;4.60;80.10
75927;DHT22;64605;48.296;16.416;2023-01-01T05:28:45;4.60;80.40
75927;DHT22;64605;48.296;16.416;2023-01-01T05:31:19;4.60;80.50
75927;DHT22;64605;48.296;16.416;2023-01-01T05:33:45;4.60;80.50
75927;DHT22;64605;48.296;16.416;2023-01-01T05:36:19;4.70;80.70
75927;DHT22;64605;48.296;16.416;2023-01-01T05:38:46;4.70;80.60
75927;DHT22;64605;48.296;16.416;2023-01-01T05:41:14;4.70;80.40
75927;DHT22;64605;48.296;16.416;2023-01-01T05:43:41;4.80;80.80
75927;DHT22;64605;48.296;16.416;2023-01-01T05:46:14;4.90;81.00
75927;DHT22;64605;48.296;16.416;2023-01-01T05:48:41;4.90;81.20
75927;DHT22;64605;48.296;16.416;2023-01-01T05:51:12;4.90;81.30
75927;DHT22;64605;48.296;16.416;2023-01-01T05:53:38;5.00;81.20
75927;DHT22;64605;48.296;16.416;2023-01-01T05:56:05;5.00;81.20
75927;DHT22;64605;48.296;16.416;2023-01-01T05:58:33;5.00;80.90
75927;DHT22;64605;48.296;16.416;2023-01-01T06:01:12;5.00;80.70
75927;DHT22;64605;48.296;16.416;2023-01-01T06:03:39;5.10;80.80
75927;DHT22;64605;48.296;16.416;2023-01-01T06:06:13;5.10;80.50
75927;DHT22;64605;48.296;16.416;2023-01-01T06:08:39;5.00;80.50
75927;DHT22;64605;48.296;16.416;2023-01-01T06:11:07;5.00;80.50
75927;DHT22;64605;48.296;16.416;2023-01-01T06:13:34;5.00;80.40
75927;DHT22;64605;48.296;16.416;2023-01-01T06:16:01;5.00;80.50
75927;DHT22;64605;48.296;16.416;2023-01-01T06:18:29;5.00;80.60
75927;DHT22;64605;48.296;16.416;2023-01-01T06:21:04;5.00;80.40
75927;DHT22;64605;48.296;16.416;2023-01-01T06:23:30;5.10;80.30
75927;DHT22;64605;48.296;16.416;2023-01-01T06:25:55;5.10;80.30
75927;DHT22;64605;48.296;16.416;2023-01-01T06:28:21;5.00;80.10
75927;DHT22;64605;48.296;16.416;2023-01-01T06:30:47;5.00;80.00
75927;DHT22;64605;48.296;16.416;2023-01-01T06:33:12;5.00;80.00
75927;DHT22;64605;48.296;16.416;2023-01-01T06:35:38;5.00;80.10
75927;DHT22;64605;48.296;16.416;2023-01-01T06:38:03;5.00;79.90
75927;DHT22;64605;48.296;16.416;2023-01-01T06:40:29;5.00;79.90
75927;DHT22;64605;48.296;16.416;2023-01-01T06:42:55;5.00;80.00
75927;DHT22;64605;48.296;16.416;2023-01-01T06:45:20;5.00;80.00
75927;DHT22;64605;48.296;16.416;2023-01-01T06:47:46;5.00;79.90
75927;DHT22;64605;48.296;16.416;2023-01-01T06:50:11;4.90;79.80
75927;DHT22;64605;48.296;16.416;2023-01-01T06:52:37;5.00;79.80
75927;DHT22;64605;48.296;16.416;2023-01-01T06:55:03;5.00;79.90
75927;DHT22;64605;48.296;16.416;2023-01-01T06:57:29;4.90;79.70
75927;DHT22;64605;48.296;16.416;2023-01-01T06:59:54;4.90;80.10
75927;DHT22;64605;48.296;16.416;2023-01-01T07:02:20;4.90;80.30
75927;DHT22;64605;48.296;16.416;2023-01-01T07:04:45;5.00;80.20
75927;DHT22;64605;48.296;16.416;2023-01-01T07:07:11;5.00;79.90
75927;DHT22;64605;48.296;16.416;2023-01-01T07:09:37;5.00;79.90
75927;DHT22;64605;48.296;16.416;2023-01-01T07:12:02;5.10;79.80
75927;DHT22;64605;48.296;16.416;2023-01-01T07:14:28;5.10;79.80
75927;DHT22;64605;48.296;16.416;2023-01-01T07:16:54;5.10;79.60
75927;DHT22;64605;48.296;16.416;2023-01-01T07:19:19;5.20;79.60
75927;DHT22;64605;48.296;16.416;2023-01-01T07:21:51;5.10;79.60
75927;DHT22;64605;48.296;16.416;2023-01-01T07:24:17;5.20;79.60
75927;DHT22;64605;48.296;16.416;2023-01-01T07:26:43;5.20;79.60
75927;DHT22;64605;48.296;16.416;2023-01-01T07:29:09;5.30;79.80
75927;DHT22;64605;48.296;16.416;2023-01-01T07:31:37;5.40;79.70
75927;DHT22;64605;48.296;16.416;2023-01-01T07:34:04;5.60;79.80
75927;DHT22;64605;48.296;16.416;2023-01-01T07:36:30;5.70;79.60
75927;DHT22;64605;48.296;16.416;2023-01-01T07:38:55;5.80;79.50
75927;DHT22;64605;48.296;16.416;2023-01-01T07:41:21;5.90;79.00
75927;DHT22;64605;48.296;16.416;2023-01-01T07:43:46;6.00;78.50
75927;DHT22;64605;48.296;16.416;2023-01-01T07:46:13;6.10;78.50
75927;DHT22;64605;48.296;16.416;2023-01-01T07:48:41;6.20;79.60
75927;DHT22;64605;48.296;16.416;2023-01-01T07:51:06;6.30;78.30
75927;DHT22;64605;48.296;16.416;2023-01-01T07:53:32;6.40;78.40
75927;DHT22;64605;48.296;16.416;2023-01-01T07:55:58;6.50;78.00
75927;DHT22;64605;48.296;16.416;2023-01-01T07:58:24;6.70;77.70
75927;DHT22;64605;48.296;16.416;2023-01-01T08:00:50;6.70;77.30
75927;DHT22;64605;48.296;16.416;2023-01-01T08:03:15;6.80;77.20
75927;DHT22;64605;48.296;16.416;2023-01-01T08:05:41;7.00;77.40
75927;DHT22;64605;48.296;16.416;2023-01-01T08:08:08;7.20;76.70
75927;DHT22;64605;48.296;16.416;2023-01-01T08:10:34;7.20;76.30
75927;DHT22;64605;48.296;16.416;2023-01-01T08:13:01;7.20;75.80
75927;DHT22;64605;48.296;16.416;2023-01-01T08:15:27;7.20;75.90
75927;DHT22;64605;48.296;16.416;2023-01-01T08:18:01;7.30;76.00
75927;DHT22;64605;48.296;16.416;2023-01-01T08:20:28;7.40;76.00
75927;DHT22;64605;48.296;16.416;2023-01-01T08:22:55;7.50;75.60
75927;DHT22;64605;48.296;16.416;2023-01-01T08:25:21;7.60;75.10
75927;DHT22;64605;48.296;16.416;2023-01-01T08:27:46;7.60;74.90
75927;DHT22;64605;48.296;16.416;2023-01-01T08:30:14;7.70;75.10
75927;DHT22;64605;48.296;16.416;2023-01-01T08:32:40;7.80;74.90
75927;DHT22;64605;48.296;16.416;2023-01-01T08:35:06;8.10;75.40
75927;DHT22;64605;48.296;16.416;2023-01-01T08:37:32;8.50;76.00
75927;DHT22;64605;48.296;16.416;2023-01-01T08:39:58;9.20;76.90
75927;DHT22;64605;48.296;16.416;2023-01-01T08:42:23;10.00;76.10
75927;DHT22;64605;48.296;16.416;2023-01-01T08:44:49;11.10;75.30
75927;DHT22;64605;48.296;16.416;2023-01-01T08:47:23;12.30;72.30
75927;DHT22;64605;48.296;16.416;2023-01-01T08:49:49;13.30;67.10
75927;DHT22;64605;48.296;16.416;2023-01-01T08:52:16;14.20;65.90
75927;DHT22;64605;48.296;16.416;2023-01-01T08:54:42;15.00;61.30
75927;DHT22;64605;48.296;16.416;2023-01-01T08:57:08;15.30;59.20
75927;DHT22;64605;48.296;16.416;2023-01-01T08:59:34;15.80;60.30
75927;DHT22;64605;48.296;16.416;2023-01-01T09:01:59;16.70;56.90
75927;DHT22;64605;48.296;16.416;2023-01-01T09:04:25;17.50;55.60
75927;DHT22;64605;48.296;16.416;2023-01-01T09:06:52;18.20;53.50
75927;DHT22;64605;48.296;16.416;2023-01-01T09:09:18;18.40;50.90
75927;DHT22;64605;48.296;16.416;2023-01-01T09:11:54;18.00;48.70
75927;DHT22;64605;48.296;16.416;2023-01-01T09:14:21;17.40;49.60
75927;DHT22;64605;48.296;16.416;2023-01-01T09:16:46;17.00;50.70
75927;DHT22;64605;48.296;16.416;2023-01-01T09:19:12;16.60;51.00
75927;DHT22;64605;48.296;16.416;2023-01-01T09:21:38;16.10;51.10
75927;DHT22;64605;48.296;16.416;2023-01-01T09:24:04;15.50;52.30
75927;DHT22;64605;48.296;16.416;2023-01-01T09:26:30;14.90;53.40
75927;DHT22;64605;48.296;16.416;2023-01-01T09:28:56;14.50;54.90
75927;DHT22;64605;48.296;16.416;2023-01-01T09:31:22;14.20;56.30
75927;DHT22;64605;48.296;16.416;2023-01-01T09:33:48;14.00;57.50
75927;DHT22;64605;48.296;16.416;2023-01-01T09:38:51;14.70;59.50
75927;DHT22;64605;48.296;16.416;2023-01-01T09:46:41;16.20;56.40
75927;DHT22;64605;48.296;16.416;2023-01-01T09:49:29;17.00;58.30
75927;DHT22;64605;48.296;16.416;2023-01-01T09:51:57;18.40;56.80
75927;DHT22;64605;48.296;16.416;2023-01-01T09:54:32;19.70;52.80
75927;DHT22;64605;48.296;16.416;2023-01-01T09:57:00;21.00;51.00
75927;DHT22;64605;48.296;16.416;2023-01-01T09:59:27;22.00;47.70
75927;DHT22;64605;48.296;16.416;2023-01-01T10:01:58;22.90;45.30
75927;DHT22;64605;48.296;16.416;2023-01-01T10:15:01;26.00;37.00
75927;DHT22;64605;48.296;16.416;2023-01-01T10:17:37;25.80;35.30
75927;DHT22;64605;48.296;16.416;2023-01-01T10:20:19;24.90;34.70
75927;DHT22;64605;48.296;16.416;2023-01-01T10:22:53;23.70;36.40
75927;DHT22;64605;48.296;16.416;2023-01-01T10:27:52;21.60;39.20
75927;DHT22;64605;48.296;16.416;2023-01-01T10:30:22;21.00;42.20
75927;DHT22;64605;48.296;16.416;2023-01-01T10:32:53;20.70;43.00
75927;DHT22;64605;48.296;16.416;2023-01-01T10:35:23;20.50;42.70
75927;DHT22;64605;48.296;16.416;2023-01-01T10:37:57;20.20;44.10
75927;DHT22;64605;48.296;16.416;2023-01-01T10:40:25;19.80;43.90
75927;DHT22;64605;48.296;16.416;2023-01-01T10:42:59;19.30;44.80
75927;DHT22;64605;48.296;16.416;2023-01-01T10:45:52;18.80;46.30
75927;DHT22;64605;48.296;16.416;2023-01-01T10:48:22;18.40;47.20
75927;DHT22;64605;48.296;16.416;2023-01-01T10:50:53;18.30;48.10
75927;DHT22;64605;48.296;16.416;2023-01-01T10:53:29;18.50;48.30
75927;DHT22;64605;48.296;16.416;2023-01-01T10:56:05;18.90;48.00
75927;DHT22;64605;48.296;16.416;2023-01-01T10:58:36;19.30;47.60
75927;DHT22;64605;48.296;16.416;2023-01-01T11:01:04;19.90;47.20
75927;DHT22;64605;48.296;16.416;2023-01-01T11:03:31;20.90;46.40
75927;DHT22;64605;48.296;16.416;2023-01-01T11:06:00;22.00;44.20
75927;DHT22;64605;48.296;16.416;2023-01-01T11:08:28;22.70;42.50
75927;DHT22;64605;48.296;16.416;2023-01-01T11:10:59;23.70;40.80
75927;DHT22;64605;48.296;16.416;2023-01-01T11:13:26;24.30;38.90
75927;DHT22;64605;48.296;16.416;2023-01-01T11:15:52;24.70;38.90
75927;DHT22;64605;48.296;16.416;2023-01-01T11:18:22;25.10;36.30
75927;DHT22;64605;48.296;16.416;2023-01-01T11:20:59;25.00;35.80
75927;DHT22;64605;48.296;16.416;2023-01-01T11:23:35;24.90;35.50
75927;DHT22;64605;48.296;16.416;2023-01-01T11:28:31;23.70;35.70
75927;DHT22;64605;48.296;16.416;2023-01-01T11:33:38;21.70;38.40
75927;DHT22;64605;48.296;16.416;2023-01-01T11:36:07;20.30;41.20
75927;DHT22;64605;48.296;16.416;2023-01-01T11:38:33;19.20;43.30
75927;DHT22;64605;48.296;16.416;2023-01-01T11:41:05;18.40;45.20
75927;DHT22;64605;48.296;16.416;2023-01-01T11:43:42;17.90;47.00
75927;DHT22;64605;48.296;16.416;2023-01-01T11:46:13;17.60;47.90
75927;DHT22;64605;48.296;16.416;2023-01-01T11:48:42;17.30;49.00
75927;DHT22;64605;48.296;16.416;2023-01-01T11:51:09;17.00;49.60
75927;DHT22;64605;48.296;16.416;2023-01-01T11:53:38;16.80;50.20
75927;DHT22;64605;48.296;16.416;2023-01-01T11:56:19;16.50;51.30
75927;DHT22;64605;48.296;16.416;2023-01-01T12:01:26;15.80;53.30
75927;DHT22;64605;48.296;16.416;2023-01-01T12:03:58;15.50;54.00
75927;DHT22;64605;48.296;16.416;2023-01-01T12:06:31;15.30;55.20
75927;DHT22;64605;48.296;16.416;2023-01-01T12:11:43;14.80;56.80
75927;DHT22;64605;48.296;16.416;2023-01-01T12:14:18;14.60;57.50
75927;DHT22;64605;48.296;16.416;2023-01-01T12:16:57;14.60;57.80
75927;DHT22;64605;48.296;16.416;2023-01-01T12:19:35;14.60;58.20
75927;DHT22;64605;48.296;16.416;2023-01-01T12:22:15;14.50;58.30
75927;DHT22;64605;48.296;16.416;2023-01-01T12:24:42;14.40;58.70
75927;DHT22;64605;48.296;16.416;2023-01-01T12:27:13;14.40;58.70
75927;DHT22;64605;48.296;16.416;2023-01-01T12:33:11;14.40;58.90
75927;DHT22;64605;48.296;16.416;2023-01-01T12:41:07;14.10;59.90
75927;DHT22;64605;48.296;16.416;2023-01-01T12:43:43;14.10;60.80
75927;DHT22;64605;48.296;16.416;2023-01-01T12:49:04;13.90;61.20
75927;DHT22;64605;48.296;16.416;2023-01-01T12:59:49;13.80;62.30
75927;DHT22;64605;48.296;16.416;2023-01-01T13:02:24;13.60;62.50
75927;DHT22;64605;48.296;16.416;2023-01-01T13:05:06;13.60;62.80
75927;DHT22;64605;48.296;16.416;2023-01-01T13:07:38;13.60;63.00
75927;DHT22;64605;48.296;16.416;2023-01-01T13:10:26;13.60;62.80
75927;DHT22;64605;48.296;16.416;2023-01-01T13:12:54;13.70;63.00
75927;DHT22;64605;48.296;16.416;2023-01-01T13:18:07;13.60;63.20
75927;DHT22;64605;48.296;16.416;2023-01-01T13:20:45;13.50;63.10
75927;DHT22;64605;48.296;16.416;2023-01-01T13:39:54;13.20;64.80
75927;DHT22;64605;48.296;16.416;2023-01-01T13:45:45;13.20;65.10
75927;DHT22;64605;48.296;16.416;2023-01-01T13:57:01;13.10;66.30
75927;DHT22;64605;48.296;16.416;2023-01-01T14:02:39;12.90;66.70
75927;DHT22;64605;48.296;16.416;2023-01-01T14:05:31;12.80;67.10
75927;DHT22;64605;48.296;16.416;2023-01-01T14:07:57;12.70;67.30
75927;DHT22;64605;48.296;16.416;2023-01-01T14:10:49;12.70;67.40
75927;DHT22;64605;48.296;16.416;2023-01-01T14:13:16;12.60;67.70
75927;DHT22;64605;48.296;16.416;2023-01-01T14:18:17;12.60;67.80
75927;DHT22;64605;48.296;16.416;2023-01-01T14:20:47;12.60;67.60
75927;DHT22;64605;48.296;16.416;2023-01-01T14:23:22;12.60;67.60
75927;DHT22;64605;48.296;16.416;2023-01-01T14:25:50;12.50;68.00
75927;DHT22;64605;48.296;16.416;2023-01-01T14:28:24;12.50;68.30
75927;DHT22;64605;48.296;16.416;2023-01-01T14:30:51;12.40;69.40
75927;DHT22;64605;48.296;16.416;2023-01-01T14:33:24;12.30;69.10
75927;DHT22;64605;48.296;16.416;2023-01-01T14:35:54;12.20;71.10
75927;DHT22;64605;48.296;16.416;2023-01-01T14:38:31;12.10;69.90
75927;DHT22;64605;48.296;16.416;2023-01-01T14:43:50;12.10;70.30
75927;DHT22;64605;48.296;16.416;2023-01-01T14:46:19;12.00;70.10
75927;DHT22;64605;48.296;16.416;2023-01-01T14:48:48;12.00;70.00
75927;DHT22;64605;48.296;16.416;2023-01-01T14:51:18;12.00;70.00
75927;DHT22;64605;48.296;16.416;2023-01-01T14:53:45;12.00;69.90
75927;DHT22;64605;48.296;16.416;2023-01-01T14:56:27;11.90;69.30
75927;DHT22;64605;48.296;16.416;2023-01-01T14:58:56;11.80;69.90
75927;DHT22;64605;48.296;16.416;2023-01-01T15:01:27;11.80;70.70
75927;DHT22;64605;48.296;16.416;2023-01-01T15:04:01;11.70;70.70
75927;DHT22;64605;48.296;16.416;2023-01-01T15:06:28;11.60;71.00
75927;DHT22;64605;48.296;16.416;2023-01-01T15:08:54;11.60;71.30
75927;DHT22;64605;48.296;16.416;2023-01-01T15:11:20;11.50;70.50
75927;DHT22;64605;48.296;16.416;2023-01-01T15:14:00;11.50;71.40
75927;DHT22;64605;48.296;16.416;2023-01-01T15:16:27;11.40;71.70
75927;DHT22;64605;48.296;16.416;2023-01-01T15:18:53;11.40;71.80
75927;DHT22;64605;48.296;16.416;2023-01-01T15:24:21;11.20;72.90
75927;DHT22;64605;48.296;16.416;2023-01-01T15:26:54;11.10;73.60
75927;DHT22;64605;48.296;16.416;2023-01-01T15:29:35;11.00;73.90
75927;DHT22;64605;48.296;16.416;2023-01-01T15:32:10;10.80;75.30
75927;DHT22;64605;48.296;16.416;2023-01-01T15:34:49;10.70;75.20
75927;DHT22;64605;48.296;16.416;2023-01-01T15:37:20;10.60;75.60
75927;DHT22;64605;48.296;16.416;2023-01-01T15:42:31;10.50;76.00
75927;DHT22;64605;48.296;16.416;2023-01-01T15:45:21;10.30;76.00
75927;DHT22;64605;48.296;16.416;2023-01-01T15:47:52;10.20;75.80
75927;DHT22;64605;48.296;16.416;2023-01-01T15:52:55;9.80;77.80
75927;DHT22;64605;48.296;16.416;2023-01-01T15:55:32;9.70;78.70
75927;DHT22;64605;48.296;16.416;2023-01-01T15:57:59;9.50;78.60
75927;DHT22;64605;48.296;16.416;2023-01-01T16:00:30;9.50;78.50
75927;DHT22;64605;48.296;16.416;2023-01-01T16:03:09;9.50;78.50
75927;DHT22;64605;48.296;16.416;2023-01-01T16:05:52;9.50;77.90
75927;DHT22;64605;48.296;16.416;2023-01-01T16:08:18;9.50;78.00
75927;DHT22;64605;48.296;16.416;2023-01-01T16:10:46;9.40;78.40
75927;DHT22;64605;48.296;16.416;2023-01-01T16:13:11;9.30;79.50
75927;DHT22;64605;48.296;16.416;2023-01-01T16:15:47;9.30;79.80
75927;DHT22;64605;48.296;16.416;2023-01-01T16:18:16;9.20;80.70
75927;DHT22;64605;48.296;16.416;2023-01-01T16:20:42;9.10;80.80
75927;DHT22;64605;48.296;16.416;2023-01-01T16:23:09;9.10;80.20
75927;DHT22;64605;48.296;16.416;2023-01-01T16:25:39;9.10;80.20
75927;DHT22;64605;48.296;16.416;2023-01-01T16:28:05;9.00;80.10
75927;DHT22;64605;48.296;16.416;2023-01-01T16:30:31;9.00;80.10
75927;DHT22;64605;48.296;16.416;2023-01-01T16:32:58;8.90;80.10
75927;DHT22;64605;48.296;16.416;2023-01-01T16:35:23;8.90;80.10
75927;DHT22;64605;48.296;16.416;2023-01-01T16:37:49;8.80;80.80
75927;DHT22;64605;48.296;16.416;2023-01-01T16:40:15;8.70;81.00
75927;DHT22;64605;48.296;16.416;2023-01-01T16:42:41;8.70;81.10
75927;DHT22;64605;48.296;16.416;2023-01-01T16:45:11;8.70;81.00
75927;DHT22;64605;48.296;16.416;2023-01-01T16:47:40;8.70;81.70
75927;DHT22;64605;48.296;16.416;2023-01-01T16:50:05;8.60;82.10
75927;DHT22;64605;48.296;16.416;2023-01-01T16:52:31;8.60;81.90
75927;DHT22;64605;48.296;16.416;2023-01-01T16:54:57;8.60;82.30
75927;DHT22;64605;48.296;16.416;2023-01-01T16:57:22;8.60;82.40
75927;DHT22;64605;48.296;16.416;2023-01-01T16:59:48;8.60;82.60
75927;DHT22;64605;48.296;16.416;2023-01-01T17:02:14;8.60;82.30
75927;DHT22;64605;48.296;16.416;2023-01-01T17:04:39;8.60;81.80
75927;DHT22;64605;48.296;16.416;2023-01-01T17:07:05;8.60;82.30
75927;DHT22;64605;48.296;16.416;2023-01-01T17:09:30;8.50;83.20
75927;DHT22;64605;48.296;16.416;2023-01-01T17:11:56;8.40;82.80
75927;DHT22;64605;48.296;16.416;2023-01-01T17:14:21;8.50;82.50
75927;DHT22;64605;48.296;16.416;2023-01-01T17:16:47;8.50;82.50
75927;DHT22;64605;48.296;16.416;2023-01-01T17:19:13;8.50;83.10
75927;DHT22;64605;48.296;16.416;2023-01-01T17:21:39;8.50;82.00
75927;DHT22;64605;48.296;16.416;2023-01-01T17:24:05;8.50;81.90
75927;DHT22;64605;48.296;16.416;2023-01-01T17:26:30;8.50;81.90
75927;DHT22;64605;48.296;16.416;2023-01-01T17:28:56;8.50;81.70
75927;DHT22;64605;48.296;16.416;2023-01-01T17:31:21;8.50;81.00
75927;DHT22;64605;48.296;16.416;2023-01-01T17:33:49;8.50;80.50
75927;DHT22;64605;48.296;16.416;2023-01-01T17:36:15;8.50;80.60
75927;DHT22;64605;48.296;16.416;2023-01-01T17:38:41;8.40;80.60
75927;DHT22;64605;48.296;16.416;2023-01-01T17:41:14;8.40;80.60
75927;DHT22;64605;48.296;16.416;2023-01-01T17:43:42;8.30;80.40
75927;DHT22;64605;48.296;16.416;2023-01-01T17:46:20;8.30;79.80